sensor_id;sensor_type;location;lat;lon;timestamp;pressure;altitude;pressure_sealevel;temperature;humidity
51687;BME280;37774;52.192;4.584;2023-07-09T06:06:45;100688.78;;;23.32;100.00
51687;BME280;37774;52.192;4.584;2023-07-09T06:09:31;100711.97;;;23.29;100.00
51687;BME280;37774;52.192;4.584;2023-07-09T06:12:16;100824.63;;;23.65;100.00
51687;BME280;37774;52.192;4.584;2023-07-09T06:15:03;100976.44;;;23.54;100.00
51687;BME280;37774;52.192;4.584;2023-07-09T06:17:48;101025.19;;;23.21;100.00
51687;BME280;37774;52.192;4.584;2023-07-09T06:20:34;100911.28;;;22.42;100.00
51687;BME280;37774;52.192;4.584;2023-07-09T06:23:21;101191.63;;;23.48;100.00
51687;BME280;37774;52.192;4.584;2023-07-09T06:26:06;101078.03;;;21.93;100.00
51687;BME280;37774;52.192;4.584;2023-07-09T06:28:52;101339.09;;;23.34;100.00
51687;BME280;37774;52.192;4.584;2023-07-09T06:31:37;101392.28;;;23.31;100.00
51687;BME280;37774;52.192;4.584;2023-07-09T06:34:24;101419.13;;;23.25;100.00
51687;BME280;37774;52.192;4.584;2023-07-09T06:37:09;101476.97;;;23.34;100.00
51687;BME280;37774;52.192;4.584;2023-07-09T06:39:56;101492.97;;;23.33;100.00
51687;BME280;37774;52.192;4.584;2023-07-09T06:42:41;101542.25;;;23.55;100.00
51687;BME280;37774;52.192;4.584;2023-07-09T06:45:27;101501.78;;;23.33;100.00
51687;BME280;37774;52.192;4.584;2023-07-09T06:48:16;101509.56;;;23.54;100.00
51687;BME280;37774;52.192;4.584;2023-07-09T06:51:01;101550.66;;;23.63;100.00
51687;BME280;37774;52.192;4.584;2023-07-09T06:53:47;101639.91;;;23.46;100.00
51687;BME280;37774;52.192;4.584;2023-07-09T06:56:36;101732.56;;;23.11;100.00
51687;BME280;37774;52.192;4.584;2023-07-09T06:59:21;101814.94;;;23.27;100.00
51687;BME280;37774;52.192;4.584;2023-07-09T07:02:07;101844.47;;;23.39;100.00
51687;BME280;37774;52.192;4.584;2023-07-09T07:04:53;101862.41;;;23.33;100.00
51687;BME280;37774;52.192;4.584;2023-07-09T07:07:39;101643.28;;;21.94;100.00
51687;BME280;37774;52.192;4.584;2023-07-09T07:10:24;101893.28;;;23.34;100.00
51687;BME280;37774;52.192;4.584;2023-07-09T07:13:11;101897.38;;;23.42;100.00
51687;BME280;37774;52.192;4.584;2023-07-09T07:15:57;101879.69;;;23.42;100.00
51687;BME280;37774;52.192;4.584;2023-07-09T07:18:43;101902.34;;;23.69;100.00
51687;BME280;37774;52.192;4.584;2023-07-09T07:21:28;101891.19;;;23.62;100.00
51687;BME280;37774;52.192;4.584;2023-07-09T07:24:14;101850.13;;;23.31;100.00
51687;BME280;37774;52.192;4.584;2023-07-09T07:26:59;101881.75;;;23.74;100.00
51687;BME280;37774;52.192;4.584;2023-07-09T07:29:46;101860.78;;;24.25;100.00
51687;BME280;37774;52.192;4.584;2023-07-09T07:32:31;101885.22;;;24.14;100.00
51687;BME280;37774;52.192;4.584;2023-07-09T07:35:17;101838.22;;;24.34;100.00
51687;BME280;37774;52.192;4.584;2023-07-09T07:38:03;101885.84;;;24.91;100.00
51687;BME280;37774;52.192;4.584;2023-07-09T07:40:49;101884.78;;;24.78;100.00
51687;BME280;37774;52.192;4.584;2023-07-09T07:43:34;101875.91;;;24.77;100.00
51687;BME280;37774;52.192;4.584;2023-07-09T07:46:21;101828.47;;;25.21;100.00
51687;BME280;37774;52.192;4.584;2023-07-09T07:49:06;101872.84;;;25.36;100.00
51687;BME280;37774;52.192;4.584;2023-07-09T07:51:52;101852.34;;;25.38;100.00
51687;BME280;37774;52.192;4.584;2023-07-09T07:54:37;101875.25;;;25.59;100.00
51687;BME280;37774;52.192;4.584;2023-07-09T07:57:24;101807.25;;;25.03;100.00
51687;BME280;37774;52.192;4.584;2023-07-09T08:00:11;101902.88;;;25.88;100.00
51687;BME280;37774;52.192;4.584;2023-07-09T08:02:58;101931.78;;;26.12;100.00
51687;BME280;37774;52.192;4.584;2023-07-09T08:05:48;101953.81;;;26.62;100.00
51687;BME280;37774;52.192;4.584;2023-07-09T08:08:33;101970.25;;;26.38;100.00
51687;BME280;37774;52.192;4.584;2023-07-09T08:11:19;101950.47;;;26.10;100.00
51687;BME280;37774;52.192;4.584;2023-07-09T08:14:04;101991.25;;;26.29;100.00
51687;BME280;37774;52.192;4.584;2023-07-09T08:16:50;101978.84;;;26.44;100.00
51687;BME280;37774;52.192;4.584;2023-07-09T08:19:45;101918.72;;;26.23;100.00
51687;BME280;37774;52.192;4.584;2023-07-09T08:22:31;101892.41;;;26.33;100.00
51687;BME280;37774;52.192;4.584;2023-07-09T08:25:16;101942.56;;;26.57;100.00
51687;BME280;37774;52.192;4.584;2023-07-09T08:28:02;101924.72;;;26.43;100.00
51687;BME280;37774;52.192;4.584;2023-07-09T08:30:47;101903.28;;;26.75;100.00
51687;BME280;37774;52.192;4.584;2023-07-09T08:33:33;101876.44;;;26.78;100.00
51687;BME280;37774;52.192;4.584;2023-07-09T08:36:20;101855.19;;;27.07;100.00
51687;BME280;37774;52.192;4.584;2023-07-09T08:39:05;101903.78;;;27.12;100.00
51687;BME280;37774;52.192;4.584;2023-07-09T08:41:54;101848.59;;;26.98;100.00
51687;BME280;37774;52.192;4.584;2023-07-09T08:45:00;101909.91;;;28.00;100.00
51687;BME280;37774;52.192;4.584;2023-07-09T08:47:53;101888.34;;;27.61;100.00
51687;BME280;37774;52.192;4.584;2023-07-09T08:50:43;101913.97;;;28.06;100.00
51687;BME280;37774;52.192;4.584;2023-07-09T08:53:36;101893.81;;;27.87;100.00
51687;BME280;37774;52.192;4.584;2023-07-09T08:56:27;101912.63;;;28.27;100.00
51687;BME280;37774;52.192;4.584;2023-07-09T08:59:16;101908.22;;;28.67;100.00
51687;BME280;37774;52.192;4.584;2023-07-09T09:02:03;101947.31;;;28.42;100.00
51687;BME280;37774;52.192;4.584;2023-07-09T09:04:55;101961.72;;;28.39;100.00
51687;BME280;37774;52.192;4.584;2023-07-09T09:07:42;101979.69;;;28.37;100.00
51687;BME280;37774;52.192;4.584;2023-07-09T09:10:33;101977.53;;;28.30;100.00
51687;BME280;37774;52.192;4.584;2023-07-09T09:13:25;101968.41;;;27.76;100.00
51687;BME280;37774;52.192;4.584;2023-07-09T09:16:30;101967.84;;;27.85;100.00
51687;BME280;37774;52.192;4.584;2023-07-09T09:19:21;101917.69;;;27.47;100.00
51687;BME280;37774;52.192;4.584;2023-07-09T09:22:09;101909.59;;;27.77;100.00
51687;BME280;37774;52.192;4.584;2023-07-09T09:25:03;101894.97;;;27.83;100.00
51687;BME280;37774;52.192;4.584;2023-07-09T09:27:52;101954.72;;;28.79;100.00
51687;BME280;37774;52.192;4.584;2023-07-09T09:30:37;101965.03;;;28.70;100.00
51687;BME280;37774;52.192;4.584;2023-07-09T09:33:23;101969.38;;;27.75;100.00
51687;BME280;37774;52.192;4.584;2023-07-09T09:36:15;101921.91;;;27.51;100.00
51687;BME280;37774;52.192;4.584;2023-07-09T09:39:02;101917.13;;;27.41;100.00
51687;BME280;37774;52.192;4.584;2023-07-09T09:41:47;101961.72;;;27.25;100.00
51687;BME280;37774;52.192;4.584;2023-07-09T09:44:33;101931.34;;;27.56;100.00
51687;BME280;37774;52.192;4.584;2023-07-09T09:47:18;101941.16;;;27.70;100.00
51687;BME280;37774;52.192;4.584;2023-07-09T09:50:04;101937.09;;;27.92;100.00
51687;BME280;37774;52.192;4.584;2023-07-09T09:52:50;101948.91;;;28.45;100.00
51687;BME280;37774;52.192;4.584;2023-07-09T09:55:38;101938.25;;;28.57;100.00
51687;BME280;37774;52.192;4.584;2023-07-09T09:58:27;101946.63;;;28.25;100.00
51687;BME280;37774;52.192;4.584;2023-07-09T10:01:17;101895.31;;;28.33;100.00
51687;BME280;37774;52.192;4.584;2023-07-09T10:04:04;101937.50;;;29.09;100.00
51687;BME280;37774;52.192;4.584;2023-07-09T10:06:52;101915.00;;;28.85;100.00
51687;BME280;37774;52.192;4.584;2023-07-09T10:09:47;101913.31;;;29.36;100.00
51687;BME280;37774;52.192;4.584;2023-07-09T10:12:39;101896.19;;;29.26;100.00
51687;BME280;37774;52.192;4.584;2023-07-09T10:15:35;101911.28;;;29.14;100.00
51687;BME280;37774;52.192;4.584;2023-07-09T10:18:35;101931.91;;;29.64;100.00
51687;BME280;37774;52.192;4.584;2023-07-09T10:21:27;101933.75;;;28.98;100.00
51687;BME280;37774;52.192;4.584;2023-07-09T10:24:33;101933.44;;;29.55;100.00
51687;BME280;37774;52.192;4.584;2023-07-09T10:27:27;101892.31;;;28.65;100.00
51687;BME280;37774;52.192;4.584;2023-07-09T10:30:25;101839.06;;;28.88;100.00
51687;BME280;37774;52.192;4.584;2023-07-09T10:33:22;101901.16;;;29.69;100.00
51687;BME280;37774;52.192;4.584;2023-07-09T10:36:24;101873.91;;;29.38;100.00
51687;BME280;37774;52.192;4.584;2023-07-09T10:39:17;101895.25;;;29.27;100.00
51687;BME280;37774;52.192;4.584;2023-07-09T10:42:11;101919.31;;;29.40;100.00
51687;BME280;37774;52.192;4.584;2023-07-09T10:45:02;101912.88;;;29.93;100.00
51687;BME280;37774;52.192;4.584;2023-07-09T10:47:53;101927.44;;;29.64;100.00
51687;BME280;37774;52.192;4.584;2023-07-09T10:50:42;101931.16;;;30.12;100.00
51687;BME280;37774;52.192;4.584;2023-07-09T10:53:34;101903.50;;;30.36;100.00
51687;BME280;37774;52.192;4.584;2023-07-09T10:56:23;101834.91;;;29.60;100.00
51687;BME280;37774;52.192;4.584;2023-07-09T10:59:20;101961.47;;;30.85;100.00
51687;BME280;37774;52.192;4.584;2023-07-09T11:02:24;101919.31;;;30.27;100.00
51687;BME280;37774;52.192;4.584;2023-07-09T11:05:10;101957.63;;;30.41;100.00
51687;BME280;37774;52.192;4.584;2023-07-09T11:08:00;101659.81;;;27.99;100.00
51687;BME280;37774;52.192;4.584;2023-07-09T11:10:52;101939.19;;;30.36;100.00
51687;BME280;37774;52.192;4.584;2023-07-09T11:13:42;101953.84;;;30.43;100.00
51687;BME280;37774;52.192;4.584;2023-07-09T11:16:33;101924.22;;;30.09;100.00
51687;BME280;37774;52.192;4.584;2023-07-09T11:19:21;101945.91;;;30.30;100.00
51687;BME280;37774;52.192;4.584;2023-07-09T11:22:14;101939.41;;;30.82;100.00
51687;BME280;37774;52.192;4.584;2023-07-09T11:25:07;101926.00;;;30.93;100.00
51687;BME280;37774;52.192;4.584;2023-07-09T11:28:02;101937.31;;;30.85;100.00
51687;BME280;37774;52.192;4.584;2023-07-09T11:30:50;101948.84;;;30.39;100.00
51687;BME280;37774;52.192;4.584;2023-07-09T11:33:45;101930.88;;;30.28;100.00
51687;BME280;37774;52.192;4.584;2023-07-09T11:36:31;101936.88;;;30.31;100.00
51687;BME280;37774;52.192;4.584;2023-07-09T11:39:19;101902.72;;;29.48;100.00
51687;BME280;37774;52.192;4.584;2023-07-09T11:42:24;101974.22;;;29.58;100.00
51687;BME280;37774;52.192;4.584;2023-07-09T11:45:12;101930.13;;;29.51;100.00
51687;BME280;37774;52.192;4.584;2023-07-09T11:48:05;101922.97;;;29.13;100.00
51687;BME280;37774;52.192;4.584;2023-07-09T11:50:55;102010.78;;;29.47;100.00
51687;BME280;37774;52.192;4.584;2023-07-09T11:53:46;102016.22;;;29.45;100.00
51687;BME280;37774;52.192;4.584;2023-07-09T11:56:32;101998.88;;;29.25;100.00
51687;BME280;37774;52.192;4.584;2023-07-09T11:59:18;102051.31;;;29.27;100.00
51687;BME280;37774;52.192;4.584;2023-07-09T12:02:06;101873.47;;;27.57;100.00
51687;BME280;37774;52.192;4.584;2023-07-09T12:04:59;102078.03;;;28.60;100.00
51687;BME280;37774;52.192;4.584;2023-07-09T12:07:45;102093.97;;;28.19;100.00
51687;BME280;37774;52.192;4.584;2023-07-09T12:10:33;102053.28;;;27.85;100.00
51687;BME280;37774;52.192;4.584;2023-07-09T12:13:18;102090.31;;;27.91;100.00
51687;BME280;37774;52.192;4.584;2023-07-09T12:16:04;102071.53;;;27.48;100.00
51687;BME280;37774;52.192;4.584;2023-07-09T12:18:51;102100.44;;;26.94;100.00
51687;BME280;37774;52.192;4.584;2023-07-09T12:21:39;102102.56;;;26.88;100.00
51687;BME280;37774;52.192;4.584;2023-07-09T12:24:25;102118.47;;;26.73;100.00
51687;BME280;37774;52.192;4.584;2023-07-09T12:27:19;102115.09;;;25.86;100.00
51687;BME280;37774;52.192;4.584;2023-07-09T12:30:11;102136.81;;;25.61;100.00
51687;BME280;37774;52.192;4.584;2023-07-09T12:32:57;102139.09;;;25.32;100.00
51687;BME280;37774;52.192;4.584;2023-07-09T12:35:44;102077.06;;;24.77;100.00
51687;BME280;37774;52.192;4.584;2023-07-09T12:38:32;102158.16;;;24.86;100.00
51687;BME280;37774;52.192;4.584;2023-07-09T12:41:28;102132.47;;;24.46;100.00
51687;BME280;37774;52.192;4.584;2023-07-09T12:44:16;102150.28;;;24.04;100.00
51687;BME280;37774;52.192;4.584;2023-07-09T12:47:02;102129.38;;;24.17;100.00
51687;BME280;37774;52.192;4.584;2023-07-09T12:49:48;102088.59;;;23.36;100.00
51687;BME280;37774;52.192;4.584;2023-07-09T12:52:45;102105.13;;;23.42;100.00
51687;BME280;37774;52.192;4.584;2023-07-09T12:55:39;102092.97;;;23.37;100.00
51687;BME280;37774;52.192;4.584;2023-07-09T12:58:28;102094.75;;;22.91;100.00
51687;BME280;37774;52.192;4.584;2023-07-09T13:01:16;102082.69;;;22.84;100.00
51687;BME280;37774;52.192;4.584;2023-07-09T13:04:02;102041.06;;;22.64;100.00
51687;BME280;37774;52.192;4.584;2023-07-09T13:06:48;102026.41;;;22.77;100.00
51687;BME280;37774;52.192;4.584;2023-07-09T13:09:35;102047.38;;;22.84;100.00
51687;BME280;37774;52.192;4.584;2023-07-09T13:12:22;102015.75;;;22.57;100.00
51687;BME280;37774;52.192;4.584;2023-07-09T13:15:38;102056.03;;;22.65;100.00
51687;BME280;37774;52.192;4.584;2023-07-09T13:18:24;102058.50;;;23.14;100.00
51687;BME280;37774;52.192;4.584;2023-07-09T13:21:15;102056.59;;;22.51;100.00
51687;BME280;37774;52.192;4.584;2023-07-09T13:24:05;102050.13;;;23.03;100.00
51687;BME280;37774;52.192;4.584;2023-07-09T13:26:57;102048.56;;;23.19;100.00
51687;BME280;37774;52.192;4.584;2023-07-09T13:29:43;102017.31;;;22.85;100.00
51687;BME280;37774;52.192;4.584;2023-07-09T13:32:28;102014.22;;;22.73;100.00
51687;BME280;37774;52.192;4.584;2023-07-09T13:35:15;102039.28;;;23.31;100.00
51687;BME280;37774;52.192;4.584;2023-07-09T13:38:00;102054.72;;;22.99;100.00
51687;BME280;37774;52.192;4.584;2023-07-09T13:40:50;102058.00;;;22.84;100.00
51687;BME280;37774;52.192;4.584;2023-07-09T13:43:42;102054.88;;;22.72;100.00
51687;BME280;37774;52.192;4.584;2023-07-09T13:46:28;102004.72;;;22.22;100.00
51687;BME280;37774;52.192;4.584;2023-07-09T13:49:15;101998.84;;;22.37;100.00
51687;BME280;37774;52.192;4.584;2023-07-09T13:52:02;101951.84;;;21.96;100.00
51687;BME280;37774;52.192;4.584;2023-07-09T13:54:50;102032.44;;;22.59;100.00
51687;BME280;37774;52.192;4.584;2023-07-09T13:57:35;102034.53;;;22.51;100.00
51687;BME280;37774;52.192;4.584;2023-07-09T14:00:22;102031.84;;;22.28;100.00
51687;BME280;37774;52.192;4.584;2023-07-09T14:03:14;102022.50;;;21.94;100.00
51687;BME280;37774;52.192;4.584;2023-07-09T14:06:01;101951.28;;;21.64;100.00
51687;BME280;37774;52.192;4.584;2023-07-09T14:08:47;101988.78;;;21.50;100.00
51687;BME280;37774;52.192;4.584;2023-07-09T14:11:32;101976.47;;;21.74;100.00
51687;BME280;37774;52.192;4.584;2023-07-09T14:14:20;101975.03;;;21.66;100.00
51687;BME280;37774;52.192;4.584;2023-07-09T14:17:08;101965.38;;;21.65;100.00
51687;BME280;37774;52.192;4.584;2023-07-09T14:19:53;101974.53;;;21.54;100.00
51687;BME280;37774;52.192;4.584;2023-07-09T14:22:40;101990.91;;;21.66;100.00
51687;BME280;37774;52.192;4.584;2023-07-09T14:25:28;101996.22;;;21.39;100.00
51687;BME280;37774;52.192;4.584;2023-07-09T14:28:16;101999.63;;;21.42;100.00
51687;BME280;37774;52.192;4.584;2023-07-09T14:31:02;101963.66;;;21.11;100.00
51687;BME280;37774;52.192;4.584;2023-07-09T14:33:48;101946.78;;;20.90;100.00
51687;BME280;37774;52.192;4.584;2023-07-09T14:36:34;101974.50;;;21.04;100.00
51687;BME280;37774;52.192;4.584;2023-07-09T14:39:19;101875.00;;;19.93;100.00
51687;BME280;37774;52.192;4.584;2023-07-09T14:42:10;102047.53;;;20.78;100.00
51687;BME280;37774;52.192;4.584;2023-07-09T14:44:56;102069.13;;;20.92;100.00
51687;BME280;37774;52.192;4.584;2023-07-09T14:47:42;102088.25;;;20.70;100.00
51687;BME280;37774;52.192;4.584;2023-07-09T14:50:28;101987.44;;;19.97;100.00
51687;BME280;37774;52.192;4.584;2023-07-09T14:53:16;101964.16;;;19.80;100.00
51687;BME280;37774;52.192;4.584;2023-07-09T14:56:01;101806.19;;;19.41;100.00
51687;BME280;37774;52.192;4.584;2023-07-09T14:58:47;101658.00;;;19.33;100.00
51687;BME280;37774;52.192;4.584;2023-07-09T15:01:32;101348.59;;;19.15;100.00
51687;BME280;37774;52.192;4.584;2023-07-09T15:04:30;101141.06;;;19.88;100.00
51687;BME280;37774;52.192;4.584;2023-07-09T15:07:18;100852.47;;;19.95;100.00
51687;BME280;37774;52.192;4.584;2023-07-09T15:10:04;100612.63;;;20.10;100.00
51687;BME280;37774;52.192;4.584;2023-07-09T15:12:51;100435.34;;;20.21;100.00
51687;BME280;37774;52.192;4.584;2023-07-09T15:15:36;100495.47;;;20.14;100.00
51687;BME280;37774;52.192;4.584;2023-07-09T15:18:22;100640.81;;;20.09;100.00
51687;BME280;37774;52.192;4.584;2023-07-09T15:21:09;100751.50;;;20.11;100.00
51687;BME280;37774;52.192;4.584;2023-07-09T15:23:57;100826.41;;;20.26;100.00
51687;BME280;37774;52.192;4.584;2023-07-09T15:26:42;100837.28;;;20.37;100.00
51687;BME280;37774;52.192;4.584;2023-07-09T15:29:28;100828.72;;;20.14;100.00
51687;BME280;37774;52.192;4.584;2023-07-09T15:32:14;100840.88;;;20.36;100.00
51687;BME280;37774;52.192;4.584;2023-07-09T15:34:59;100837.28;;;20.37;100.00
51687;BME280;37774;52.192;4.584;2023-07-09T15:37:45;100841.81;;;20.53;100.00
51687;BME280;37774;52.192;4.584;2023-07-09T15:40:33;100688.09;;;19.58;100.00
51687;BME280;37774;52.192;4.584;2023-07-09T15:43:19;100752.59;;;20.07;100.00
51687;BME280;37774;52.192;4.584;2023-07-09T15:46:04;100793.31;;;20.55;100.00
51687;BME280;37774;52.192;4.584;2023-07-09T15:48:50;100794.25;;;20.72;100.00
51687;BME280;37774;52.192;4.584;2023-07-09T15:51:36;100768.00;;;20.69;100.00
51687;BME280;37774;52.192;4.584;2023-07-09T15:54:22;100774.44;;;20.46;100.00
51687;BME280;37774;52.192;4.584;2023-07-09T15:57:12;100739.50;;;20.23;100.00
51687;BME280;37774;52.192;4.584;2023-07-09T15:59:59;100705.97;;;20.07;100.00
51687;BME280;37774;52.192;4.584;2023-07-09T16:02:45;100690.47;;;20.01;100.00
51687;BME280;37774;52.192;4.584;2023-07-09T16:05:31;100537.66;;;18.89;100.00
51687;BME280;37774;52.192;4.584;2023-07-09T16:08:16;100627.50;;;19.76;100.00
51687;BME280;37774;52.192;4.584;2023-07-09T16:11:07;100665.63;;;20.40;100.00
51687;BME280;37774;52.192;4.584;2023-07-09T16:13:54;100653.34;;;20.39;100.00
51687;BME280;37774;52.192;4.584;2023-07-09T16:16:40;100649.00;;;20.38;100.00
51687;BME280;37774;52.192;4.584;2023-07-09T16:19:26;100708.28;;;20.66;100.00
51687;BME280;37774;52.192;4.584;2023-07-09T16:22:14;100718.84;;;20.13;100.00
51687;BME280;37774;52.192;4.584;2023-07-09T16:25:11;100690.56;;;20.35;100.00
51687;BME280;37774;52.192;4.584;2023-07-09T16:27:57;100666.22;;;20.46;100.00
51687;BME280;37774;52.192;4.584;2023-07-09T16:30:44;100686.25;;;20.32;100.00
51687;BME280;37774;52.192;4.584;2023-07-09T16:33:30;100624.91;;;19.93;100.00
51687;BME280;37774;52.192;4.584;2023-07-09T16:36:18;100770.94;;;20.98;100.00
51687;BME280;37774;52.192;4.584;2023-07-09T16:39:20;100784.94;;;20.82;100.00
51687;BME280;37774;52.192;4.584;2023-07-09T16:42:09;100820.28;;;20.97;100.00
51687;BME280;37774;52.192;4.584;2023-07-09T16:44:55;100861.53;;;20.82;100.00
51687;BME280;37774;52.192;4.584;2023-07-09T16:47:43;100911.78;;;20.81;100.00
51687;BME280;37774;52.192;4.584;2023-07-09T16:50:28;100963.25;;;20.53;100.00
51687;BME280;37774;52.192;4.584;2023-07-09T16:53:15;101048.53;;;20.93;100.00
51687;BME280;37774;52.192;4.584;2023-07-09T16:56:01;101130.97;;;21.00;100.00
51687;BME280;37774;52.192;4.584;2023-07-09T16:58:46;101192.72;;;20.97;100.00
51687;BME280;37774;52.192;4.584;2023-07-09T17:01:32;101203.00;;;20.43;100.00
51687;BME280;37774;52.192;4.584;2023-07-09T17:04:22;101316.66;;;21.02;100.00
51687;BME280;37774;52.192;4.584;2023-07-09T17:07:07;101376.63;;;21.00;100.00
51687;BME280;37774;52.192;4.584;2023-07-09T17:09:54;101434.03;;;20.74;100.00
51687;BME280;37774;52.192;4.584;2023-07-09T17:12:40;101474.22;;;20.82;100.00
51687;BME280;37774;52.192;4.584;2023-07-09T17:15:28;101478.56;;;21.06;100.00
51687;BME280;37774;52.192;4.584;2023-07-09T17:18:18;101513.72;;;20.85;100.00
51687;BME280;37774;52.192;4.584;2023-07-09T17:21:06;101493.75;;;20.32;100.00
51687;BME280;37774;52.192;4.584;2023-07-09T17:23:51;101543.88;;;20.56;100.00
51687;BME280;37774;52.192;4.584;2023-07-09T17:26:36;101581.53;;;20.61;100.00
51687;BME280;37774;52.192;4.584;2023-07-09T17:29:23;101606.44;;;20.78;100.00
51687;BME280;37774;52.192;4.584;2023-07-09T17:32:09;101603.38;;;20.90;100.00
51687;BME280;37774;52.192;4.584;2023-07-09T17:34:55;101570.97;;;20.61;100.00
51687;BME280;37774;52.192;4.584;2023-07-09T17:37:47;101519.06;;;20.38;100.00
51687;BME280;37774;52.192;4.584;2023-07-09T17:40:35;101550.75;;;20.38;100.00
51687;BME280;37774;52.192;4.584;2023-07-09T17:43:22;101559.03;;;20.27;100.00
51687;BME280;37774;52.192;4.584;2023-07-09T17:46:12;101608.44;;;20.23;100.00
51687;BME280;37774;52.192;4.584;2023-07-09T17:48:59;101531.66;;;19.80;100.00
51687;BME280;37774;52.192;4.584;2023-07-09T17:51:44;101616.59;;;20.17;100.00
51687;BME280;37774;52.192;4.584;2023-07-09T17:54:31;101553.94;;;19.71;100.00
51687;BME280;37774;52.192;4.584;2023-07-09T17:57:22;101592.84;;;19.65;100.00
51687;BME280;37774;52.192;4.584;2023-07-09T18:00:17;101531.22;;;19.15;100.00
51687;BME280;37774;52.192;4.584;2023-07-09T18:03:07;101620.59;;;19.48;100.00
51687;BME280;37774;52.192;4.584;2023-07-09T18:05:53;101640.88;;;19.46;100.00
51687;BME280;37774;52.192;4.584;2023-07-09T18:08:38;101673.72;;;19.91;100.00
51687;BME280;37774;52.192;4.584;2023-07-09T18:11:27;101678.38;;;19.83;100.00
51687;BME280;37774;52.192;4.584;2023-07-09T18:14:22;101656.50;;;19.52;100.00
51687;BME280;37774;52.192;4.584;2023-07-09T18:17:14;101659.41;;;19.71;100.00
51687;BME280;37774;52.192;4.584;2023-07-09T18:20:01;101646.00;;;19.78;100.00
51687;BME280;37774;52.192;4.584;2023-07-09T18:22:46;101626.22;;;19.66;100.00
51687;BME280;37774;52.192;4.584;2023-07-09T18:25:32;101609.31;;;19.71;100.00
51687;BME280;37774;52.192;4.584;2023-07-09T18:28:25;101561.59;;;19.52;100.00
51687;BME280;37774;52.192;4.584;2023-07-09T18:31:11;101519.31;;;19.30;100.00
51687;BME280;37774;52.192;4.584;2023-07-09T18:33:57;101568.16;;;19.40;100.00
51687;BME280;37774;52.192;4.584;2023-07-09T18:36:42;101567.78;;;19.24;100.00
51687;BME280;37774;52.192;4.584;2023-07-09T18:39:28;101588.38;;;19.40;100.00
51687;BME280;37774;52.192;4.584;2023-07-09T18:42:15;101582.28;;;19.38;100.00
51687;BME280;37774;52.192;4.584;2023-07-09T18:45:02;101469.50;;;18.67;100.00
51687;BME280;37774;52.192;4.584;2023-07-09T18:47:48;101585.38;;;19.24;100.00
51687;BME280;37774;52.192;4.584;2023-07-09T18:50:33;101580.66;;;19.34;100.00
51687;BME280;37774;52.192;4.584;2023-07-09T18:53:19;101362.97;;;17.63;100.00
51687;BME280;37774;52.192;4.584;2023-07-09T18:56:06;101575.88;;;19.20;100.00
51687;BME280;37774;52.192;4.584;2023-07-09T18:58:52;101501.16;;;18.65;100.00
51687;BME280;37774;52.192;4.584;2023-07-09T19:01:39;101597.84;;;19.19;100.00
51687;BME280;37774;52.192;4.584;2023-07-09T19:04:26;101603.44;;;19.08;100.00
51687;BME280;37774;52.192;4.584;2023-07-09T19:07:17;101543.19;;;18.68;100.00
51687;BME280;37774;52.192;4.584;2023-07-09T19:10:03;101610.06;;;18.91;100.00
51687;BME280;37774;52.192;4.584;2023-07-09T19:12:51;101514.28;;;18.07;100.00
51687;BME280;37774;52.192;4.584;2023-07-09T19:15:38;101666.94;;;18.98;100.00
51687;BME280;37774;52.192;4.584;2023-07-09T19:18:27;101620.44;;;18.97;100.00
51687;BME280;37774;52.192;4.584;2023-07-09T19:21:15;101590.09;;;18.84;100.00
51687;BME280;37774;52.192;4.584;2023-07-09T19:24:01;101566.06;;;18.66;100.00
51687;BME280;37774;52.192;4.584;2023-07-09T19:26:48;101518.66;;;18.36;100.00
51687;BME280;37774;52.192;4.584;2023-07-09T19:29:33;101540.06;;;18.54;100.00
51687;BME280;37774;52.192;4.584;2023-07-09T19:32:23;101547.31;;;18.47;100.00
51687;BME280;37774;52.192;4.584;2023-07-09T19:35:16;101521.94;;;18.45;100.00
51687;BME280;37774;52.192;4.584;2023-07-09T19:38:02;101519.19;;;18.48;100.00
51687;BME280;37774;52.192;4.584;2023-07-09T19:40:48;101466.94;;;18.07;100.00
51687;BME280;37774;52.192;4.584;2023-07-09T19:43:33;101516.09;;;18.35;100.00
51687;BME280;37774;52.192;4.584;2023-07-09T19:46:22;101490.72;;;18.32;100.00
51687;BME280;37774;52.192;4.584;2023-07-09T19:49:10;101490.91;;;18.26;100.00
51687;BME280;37774;52.192;4.584;2023-07-09T19:51:57;101506.50;;;18.32;100.00
51687;BME280;37774;52.192;4.584;2023-07-09T19:54:43;101466.31;;;17.95;100.00
51687;BME280;37774;52.192;4.584;2023-07-09T19:57:30;101527.97;;;18.18;100.00
51687;BME280;37774;52.192;4.584;2023-07-09T20:00:17;101527.34;;;18.10;100.00
51687;BME280;37774;52.192;4.584;2023-07-09T20:03:03;101576.00;;;18.25;100.00
51687;BME280;37774;52.192;4.584;2023-07-09T20:05:48;101574.75;;;18.07;100.00
51687;BME280;37774;52.192;4.584;2023-07-09T20:08:35;101569.34;;;18.12;100.00
51687;BME280;37774;52.192;4.584;2023-07-09T20:11:21;101606.22;;;18.10;100.00
51687;BME280;37774;52.192;4.584;2023-07-09T20:14:13;101595.75;;;18.08;100.00
51687;BME280;37774;52.192;4.584;2023-07-09T20:16:59;101567.03;;;17.99;100.00
51687;BME280;37774;52.192;4.584;2023-07-09T20:19:44;101533.94;;;17.90;100.00
51687;BME280;37774;52.192;4.584;2023-07-09T20:22:30;101521.13;;;17.78;100.00
51687;BME280;37774;52.192;4.584;2023-07-09T20:25:19;101532.06;;;17.95;100.00
51687;BME280;37774;52.192;4.584;2023-07-09T20:28:09;101428.34;;;17.43;100.00
51687;BME280;37774;52.192;4.584;2023-07-09T20:30:58;101461.25;;;17.58;100.00
51687;BME280;37774;52.192;4.584;2023-07-09T20:33:44;101534.53;;;18.02;100.00